sensor_id;sensor_type;location;lat;lon;timestamp;P1;P2;P0
40947;PMS5003;49382;-25.924;28.194;2022-11-23T00:02:19;11;10;
40947;PMS5003;49382;-25.924;28.194;2022-11-23T00:04:45;13;13;
40947;PMS5003;49382;-25.924;28.194;2022-11-23T00:07:11;20;20;
40947;PMS5003;49382;-25.924;28.194;2022-11-23T00:09:37;21;21;
40947;PMS5003;49382;-25.924;28.194;2022-11-23T00:12:03;14;14;
40947;PMS5003;49382;-25.924;28.194;2022-11-23T00:14:28;10;10;
40947;PMS5003;49382;-25.924;28.194;2022-11-23T00:16:54;9;9;
40947;PMS5003;49382;-25.924;28.194;2022-11-23T00:19:20;11;11;
40947;PMS5003;49382;-25.924;28.194;2022-11-23T00:21:46;13;13;
40947;PMS5003;49382;-25.924;28.194;2022-11-23T00:24:12;12;12;
40947;PMS5003;49382;-25.924;28.194;2022-11-23T00:26:37;12;12;
40947;PMS5003;49382;-25.924;28.194;2022-11-23T00:29:03;13;13;
40947;PMS5003;49382;-25.924;28.194;2022-11-23T00:31:29;14;14;
40947;PMS5003;49382;-25.924;28.194;2022-11-23T00:33:55;15;15;
40947;PMS5003;49382;-25.924;28.194;2022-11-23T00:36:21;17;17;
40947;PMS5003;49382;-25.924;28.194;2022-11-23T00:38:46;16;16;
40947;PMS5003;49382;-25.924;28.194;2022-11-23T00:41:13;14;14;
40947;PMS5003;49382;-25.924;28.194;2022-11-23T00:43:37;17;15;
40947;PMS5003;49382;-25.924;28.194;2022-11-23T00:46:04;15;15;
40947;PMS5003;49382;-25.924;28.194;2022-11-23T00:48:29;13;13;
40947;PMS5003;49382;-25.924;28.194;2022-11-23T00:50:54;14;14;
40947;PMS5003;49382;-25.924;28.194;2022-11-23T00:53:20;13;13;
40947;PMS5003;49382;-25.924;28.194;2022-11-23T00:55:49;10;10;
40947;PMS5003;49382;-25.924;28.194;2022-11-23T00:58:11;13;13;
40947;PMS5003;49382;-25.924;28.194;2022-11-23T01:00:37;14;13;
40947;PMS5003;49382;-25.924;28.194;2022-11-23T01:03:03;16;15;
40947;PMS5003;49382;-25.924;28.194;2022-11-23T01:05:29;12;12;
40947;PMS5003;49382;-25.924;28.194;2022-11-23T01:07:54;12;12;
40947;PMS5003;49382;-25.924;28.194;2022-11-23T01:10:19;14;14;
40947;PMS5003;49382;-25.924;28.194;2022-11-23T01:12:45;13;13;
40947;PMS5003;49382;-25.924;28.194;2022-11-23T01:15:11;12;12;
40947;PMS5003;49382;-25.924;28.194;2022-11-23T01:17:37;11;11;
40947;PMS5003;49382;-25.924;28.194;2022-11-23T01:20:02;13;13;
40947;PMS5003;49382;-25.924;28.194;2022-11-23T01:22:28;19;18;
40947;PMS5003;49382;-25.924;28.194;2022-11-23T01:24:53;20;19;
40947;PMS5003;49382;-25.924;28.194;2022-11-23T01:27:18;18;17;
40947;PMS5003;49382;-25.924;28.194;2022-11-23T01:29:44;17;17;
40947;PMS5003;49382;-25.924;28.194;2022-11-23T01:32:08;21;20;
40947;PMS5003;49382;-25.924;28.194;2022-11-23T01:34:34;23;22;
40947;PMS5003;49382;-25.924;28.194;2022-11-23T01:37:00;26;26;
40947;PMS5003;49382;-25.924;28.194;2022-11-23T01:39:26;32;32;
40947;PMS5003;49382;-25.924;28.194;2022-11-23T01:41:51;27;27;
40947;PMS5003;49382;-25.924;28.194;2022-11-23T01:46:42;27;27;
40947;PMS5003;49382;-25.924;28.194;2022-11-23T01:49:07;25;24;
40947;PMS5003;49382;-25.924;28.194;2022-11-23T01:51:33;27;27;
40947;PMS5003;49382;-25.924;28.194;2022-11-23T01:53:59;22;22;
40947;PMS5003;49382;-25.924;28.194;2022-11-23T01:56:24;23;23;
40947;PMS5003;49382;-25.924;28.194;2022-11-23T01:58:49;18;18;
40947;PMS5003;49382;-25.924;28.194;2022-11-23T02:01:14;20;19;
40947;PMS5003;49382;-25.924;28.194;2022-11-23T02:03:39;22;21;
40947;PMS5003;49382;-25.924;28.194;2022-11-23T02:06:07;20;19;
40947;PMS5003;49382;-25.924;28.194;2022-11-23T02:08:29;17;17;
40947;PMS5003;49382;-25.924;28.194;2022-11-23T02:10:55;18;18;
40947;PMS5003;49382;-25.924;28.194;2022-11-23T02:13:21;19;19;
40947;PMS5003;49382;-25.924;28.194;2022-11-23T02:15:47;20;20;
40947;PMS5003;49382;-25.924;28.194;2022-11-23T02:18:13;18;18;
40947;PMS5003;49382;-25.924;28.194;2022-11-23T02:20:38;17;17;
40947;PMS5003;49382;-25.924;28.194;2022-11-23T02:23:08;18;18;
40947;PMS5003;49382;-25.924;28.194;2022-11-23T02:25:32;17;17;
40947;PMS5003;49382;-25.924;28.194;2022-11-23T02:27:54;19;18;
40947;PMS5003;49382;-25.924;28.194;2022-11-23T02:30:19;19;18;
40947;PMS5003;49382;-25.924;28.194;2022-11-23T02:32:45;20;20;
40947;PMS5003;49382;-25.924;28.194;2022-11-23T02:35:10;19;19;
40947;PMS5003;49382;-25.924;28.194;2022-11-23T02:37:36;21;21;
40947;PMS5003;49382;-25.924;28.194;2022-11-23T02:40:01;27;27;
40947;PMS5003;49382;-25.924;28.194;2022-11-23T02:42:27;23;22;
40947;PMS5003;49382;-25.924;28.194;2022-11-23T02:44:54;32;31;
40947;PMS5003;49382;-25.924;28.194;2022-11-23T02:47:18;20;20;
40947;PMS5003;49382;-25.924;28.194;2022-11-23T02:49:45;22;21;
40947;PMS5003;49382;-25.924;28.194;2022-11-23T02:52:10;18;18;
40947;PMS5003;49382;-25.924;28.194;2022-11-23T02:54:35;14;14;
40947;PMS5003;49382;-25.924;28.194;2022-11-23T02:57:00;15;15;
40947;PMS5003;49382;-25.924;28.194;2022-11-23T02:59:25;17;17;
40947;PMS5003;49382;-25.924;28.194;2022-11-23T03:01:51;16;16;
40947;PMS5003;49382;-25.924;28.194;2022-11-23T03:04:17;16;16;
40947;PMS5003;49382;-25.924;28.194;2022-11-23T03:06:43;16;16;
40947;PMS5003;49382;-25.924;28.194;2022-11-23T03:09:08;16;16;
40947;PMS5003;49382;-25.924;28.194;2022-11-23T03:11:34;16;16;
40947;PMS5003;49382;-25.924;28.194;2022-11-23T03:14:00;17;17;
40947;PMS5003;49382;-25.924;28.194;2022-11-23T03:16:26;16;16;
40947;PMS5003;49382;-25.924;28.194;2022-11-23T03:18:52;19;18;
40947;PMS5003;49382;-25.924;28.194;2022-11-23T03:21:18;24;23;
40947;PMS5003;49382;-25.924;28.194;2022-11-23T03:23:43;22;22;
40947;PMS5003;49382;-25.924;28.194;2022-11-23T03:26:08;25;24;
40947;PMS5003;49382;-25.924;28.194;2022-11-23T03:28:34;28;27;
40947;PMS5003;49382;-25.924;28.194;2022-11-23T03:30:59;25;25;
40947;PMS5003;49382;-25.924;28.194;2022-11-23T03:33:24;26;26;
40947;PMS5003;49382;-25.924;28.194;2022-11-23T03:35:50;26;26;
40947;PMS5003;49382;-25.924;28.194;2022-11-23T03:38:16;28;27;
40947;PMS5003;49382;-25.924;28.194;2022-11-23T03:40:42;24;24;
40947;PMS5003;49382;-25.924;28.194;2022-11-23T03:43:07;21;21;
40947;PMS5003;49382;-25.924;28.194;2022-11-23T03:45:32;26;25;
40947;PMS5003;49382;-25.924;28.194;2022-11-23T03:47:58;24;23;
40947;PMS5003;49382;-25.924;28.194;2022-11-23T03:50:24;24;24;
40947;PMS5003;49382;-25.924;28.194;2022-11-23T03:52:50;27;27;
40947;PMS5003;49382;-25.924;28.194;2022-11-23T03:55:16;24;24;
40947;PMS5003;49382;-25.924;28.194;2022-11-23T03:57:41;25;25;
40947;PMS5003;49382;-25.924;28.194;2022-11-23T04:00:07;27;25;
40947;PMS5003;49382;-25.924;28.194;2022-11-23T04:02:33;24;24;
40947;PMS5003;49382;-25.924;28.194;2022-11-23T04:04:58;21;21;
40947;PMS5003;49382;-25.924;28.194;2022-11-23T04:07:23;22;21;
40947;PMS5003;49382;-25.924;28.194;2022-11-23T04:09:48;22;22;
40947;PMS5003;49382;-25.924;28.194;2022-11-23T04:12:14;20;20;
40947;PMS5003;49382;-25.924;28.194;2022-11-23T04:14:40;19;18;
40947;PMS5003;49382;-25.924;28.194;2022-11-23T04:17:06;21;21;
40947;PMS5003;49382;-25.924;28.194;2022-11-23T04:19:31;17;17;
40947;PMS5003;49382;-25.924;28.194;2022-11-23T04:21:57;13;13;
40947;PMS5003;49382;-25.924;28.194;2022-11-23T04:24:23;16;16;
40947;PMS5003;49382;-25.924;28.194;2022-11-23T04:26:49;15;15;
40947;PMS5003;49382;-25.924;28.194;2022-11-23T04:29:15;15;14;
40947;PMS5003;49382;-25.924;28.194;2022-11-23T04:31:41;17;17;
40947;PMS5003;49382;-25.924;28.194;2022-11-23T04:34:06;16;16;
40947;PMS5003;49382;-25.924;28.194;2022-11-23T04:36:32;17;16;
40947;PMS5003;49382;-25.924;28.194;2022-11-23T04:38:58;14;13;
40947;PMS5003;49382;-25.924;28.194;2022-11-23T04:41:24;14;14;
40947;PMS5003;49382;-25.924;28.194;2022-11-23T04:43:50;13;13;
40947;PMS5003;49382;-25.924;28.194;2022-11-23T04:46:16;14;14;
40947;PMS5003;49382;-25.924;28.194;2022-11-23T04:48:41;17;16;
40947;PMS5003;49382;-25.924;28.194;2022-11-23T04:51:07;13;12;
40947;PMS5003;49382;-25.924;28.194;2022-11-23T04:53:32;12;12;
40947;PMS5003;49382;-25.924;28.194;2022-11-23T04:55:58;15;15;
40947;PMS5003;49382;-25.924;28.194;2022-11-23T04:58:24;15;14;
40947;PMS5003;49382;-25.924;28.194;2022-11-23T05:00:50;15;14;
40947;PMS5003;49382;-25.924;28.194;2022-11-23T05:03:15;14;14;
40947;PMS5003;49382;-25.924;28.194;2022-11-23T05:05:41;14;14;
40947;PMS5003;49382;-25.924;28.194;2022-11-23T05:08:07;16;15;
40947;PMS5003;49382;-25.924;28.194;2022-11-23T05:10:32;16;15;
40947;PMS5003;49382;-25.924;28.194;2022-11-23T05:12:58;15;14;
40947;PMS5003;49382;-25.924;28.194;2022-11-23T05:15:24;18;17;
40947;PMS5003;49382;-25.924;28.194;2022-11-23T05:17:50;15;14;
40947;PMS5003;49382;-25.924;28.194;2022-11-23T05:20:16;14;14;
40947;PMS5003;49382;-25.924;28.194;2022-11-23T05:22:41;16;14;
40947;PMS5003;49382;-25.924;28.194;2022-11-23T05:25:07;17;17;
40947;PMS5003;49382;-25.924;28.194;2022-11-23T05:27:33;20;19;
40947;PMS5003;49382;-25.924;28.194;2022-11-23T05:29:59;22;22;
40947;PMS5003;49382;-25.924;28.194;2022-11-23T05:32:25;17;17;
40947;PMS5003;49382;-25.924;28.194;2022-11-23T05:34:50;22;20;
40947;PMS5003;49382;-25.924;28.194;2022-11-23T05:37:15;28;26;
40947;PMS5003;49382;-25.924;28.194;2022-11-23T05:39:41;19;19;
40947;PMS5003;49382;-25.924;28.194;2022-11-23T05:42:07;39;39;
40947;PMS5003;49382;-25.924;28.194;2022-11-23T05:44:32;51;51;
40947;PMS5003;49382;-25.924;28.194;2022-11-23T05:46:57;16;16;
40947;PMS5003;49382;-25.924;28.194;2022-11-23T05:49:23;18;18;
40947;PMS5003;49382;-25.924;28.194;2022-11-23T05:51:49;18;18;
40947;PMS5003;49382;-25.924;28.194;2022-11-23T05:54:14;17;16;
40947;PMS5003;49382;-25.924;28.194;2022-11-23T05:56:40;17;17;
40947;PMS5003;49382;-25.924;28.194;2022-11-23T05:59:06;16;16;
40947;PMS5003;49382;-25.924;28.194;2022-11-23T06:01:32;17;17;
40947;PMS5003;49382;-25.924;28.194;2022-11-23T06:03:58;16;16;
40947;PMS5003;49382;-25.924;28.194;2022-11-23T06:06:24;16;16;
40947;PMS5003;49382;-25.924;28.194;2022-11-23T06:08:49;18;18;
40947;PMS5003;49382;-25.924;28.194;2022-11-23T06:11:15;16;16;
40947;PMS5003;49382;-25.924;28.194;2022-11-23T06:13:41;17;17;
40947;PMS5003;49382;-25.924;28.194;2022-11-23T06:16:07;17;17;
40947;PMS5003;49382;-25.924;28.194;2022-11-23T06:18:33;18;18;
40947;PMS5003;49382;-25.924;28.194;2022-11-23T06:20:59;17;17;
40947;PMS5003;49382;-25.924;28.194;2022-11-23T06:23:23;18;17;
40947;PMS5003;49382;-25.924;28.194;2022-11-23T06:25:49;21;21;
40947;PMS5003;49382;-25.924;28.194;2022-11-23T06:28:14;34;34;
40947;PMS5003;49382;-25.924;28.194;2022-11-23T06:30:40;18;18;
40947;PMS5003;49382;-25.924;28.194;2022-11-23T06:33:06;23;22;
40947;PMS5003;49382;-25.924;28.194;2022-11-23T06:35:31;20;20;
40947;PMS5003;49382;-25.924;28.194;2022-11-23T06:37:57;23;23;
40947;PMS5003;49382;-25.924;28.194;2022-11-23T06:40:23;19;19;
40947;PMS5003;49382;-25.924;28.194;2022-11-23T06:42:49;19;19;
40947;PMS5003;49382;-25.924;28.194;2022-11-23T06:45:14;20;20;
40947;PMS5003;49382;-25.924;28.194;2022-11-23T06:47:40;22;22;
40947;PMS5003;49382;-25.924;28.194;2022-11-23T06:50:06;23;23;
40947;PMS5003;49382;-25.924;28.194;2022-11-23T06:52:32;22;22;
40947;PMS5003;49382;-25.924;28.194;2022-11-23T06:54:57;21;20;
40947;PMS5003;49382;-25.924;28.194;2022-11-23T06:57:23;24;24;
40947;PMS5003;49382;-25.924;28.194;2022-11-23T06:59:49;21;20;
40947;PMS5003;49382;-25.924;28.194;2022-11-23T07:02:15;26;25;
40947;PMS5003;49382;-25.924;28.194;2022-11-23T07:04:40;33;33;
40947;PMS5003;49382;-25.924;28.194;2022-11-23T07:07:06;33;33;
40947;PMS5003;49382;-25.924;28.194;2022-11-23T07:09:32;39;39;
40947;PMS5003;49382;-25.924;28.194;2022-11-23T07:11:57;29;27;
40947;PMS5003;49382;-25.924;28.194;2022-11-23T07:14:23;29;28;
40947;PMS5003;49382;-25.924;28.194;2022-11-23T07:16:48;24;24;
40947;PMS5003;49382;-25.924;28.194;2022-11-23T07:19:14;27;27;
40947;PMS5003;49382;-25.924;28.194;2022-11-23T07:21:40;26;26;
40947;PMS5003;49382;-25.924;28.194;2022-11-23T07:24:06;29;28;
40947;PMS5003;49382;-25.924;28.194;2022-11-23T07:26:31;29;28;
40947;PMS5003;49382;-25.924;28.194;2022-11-23T07:28:57;27;27;
40947;PMS5003;49382;-25.924;28.194;2022-11-23T07:31:23;28;28;
40947;PMS5003;49382;-25.924;28.194;2022-11-23T07:33:48;26;26;
40947;PMS5003;49382;-25.924;28.194;2022-11-23T07:36:14;28;27;
40947;PMS5003;49382;-25.924;28.194;2022-11-23T07:38:40;29;28;
40947;PMS5003;49382;-25.924;28.194;2022-11-23T07:41:05;24;24;
40947;PMS5003;49382;-25.924;28.194;2022-11-23T07:43:31;27;26;
40947;PMS5003;49382;-25.924;28.194;2022-11-23T07:45:56;27;26;
40947;PMS5003;49382;-25.924;28.194;2022-11-23T07:48:23;28;28;
40947;PMS5003;49382;-25.924;28.194;2022-11-23T07:50:50;26;26;
40947;PMS5003;49382;-25.924;28.194;2022-11-23T07:53:14;26;26;
40947;PMS5003;49382;-25.924;28.194;2022-11-23T07:55:39;28;27;
40947;PMS5003;49382;-25.924;28.194;2022-11-23T07:58:05;26;26;
40947;PMS5003;49382;-25.924;28.194;2022-11-23T08:00:31;29;29;
40947;PMS5003;49382;-25.924;28.194;2022-11-23T08:02:56;33;33;
40947;PMS5003;49382;-25.924;28.194;2022-11-23T08:05:22;29;28;
40947;PMS5003;49382;-25.924;28.194;2022-11-23T08:07:48;30;30;
40947;PMS5003;49382;-25.924;28.194;2022-11-23T08:10:14;30;29;
40947;PMS5003;49382;-25.924;28.194;2022-11-23T08:12:39;33;32;
40947;PMS5003;49382;-25.924;28.194;2022-11-23T08:15:05;48;48;
40947;PMS5003;49382;-25.924;28.194;2022-11-23T08:17:31;40;40;
40947;PMS5003;49382;-25.924;28.194;2022-11-23T08:19:56;42;42;
40947;PMS5003;49382;-25.924;28.194;2022-11-23T08:22:22;70;70;
40947;PMS5003;49382;-25.924;28.194;2022-11-23T08:24:47;36;36;
40947;PMS5003;49382;-25.924;28.194;2022-11-23T08:27:12;36;35;
40947;PMS5003;49382;-25.924;28.194;2022-11-23T08:29:38;103;103;
40947;PMS5003;49382;-25.924;28.194;2022-11-23T08:32:04;66;66;
40947;PMS5003;49382;-25.924;28.194;2022-11-23T08:34:29;69;69;
40947;PMS5003;49382;-25.924;28.194;2022-11-23T08:36:55;82;82;
40947;PMS5003;49382;-25.924;28.194;2022-11-23T08:39:20;35;35;
40947;PMS5003;49382;-25.924;28.194;2022-11-23T08:41:46;32;32;
40947;PMS5003;49382;-25.924;28.194;2022-11-23T08:44:11;38;37;
40947;PMS5003;49382;-25.924;28.194;2022-11-23T08:46:37;32;32;
40947;PMS5003;49382;-25.924;28.194;2022-11-23T08:49:02;42;42;
40947;PMS5003;49382;-25.924;28.194;2022-11-23T08:51:29;37;37;
40947;PMS5003;49382;-25.924;28.194;2022-11-23T08:53:54;30;30;
40947;PMS5003;49382;-25.924;28.194;2022-11-23T08:56:19;54;54;
40947;PMS5003;49382;-25.924;28.194;2022-11-23T08:58:45;47;47;
40947;PMS5003;49382;-25.924;28.194;2022-11-23T09:01:11;35;34;
40947;PMS5003;49382;-25.924;28.194;2022-11-23T09:03:36;33;33;
40947;PMS5003;49382;-25.924;28.194;2022-11-23T09:06:01;31;31;
40947;PMS5003;49382;-25.924;28.194;2022-11-23T09:08:27;32;32;
40947;PMS5003;49382;-25.924;28.194;2022-11-23T09:10:53;26;25;
40947;PMS5003;49382;-25.924;28.194;2022-11-23T09:13:18;29;29;
40947;PMS5003;49382;-25.924;28.194;2022-11-23T09:15:44;26;26;
40947;PMS5003;49382;-25.924;28.194;2022-11-23T09:18:10;28;28;
40947;PMS5003;49382;-25.924;28.194;2022-11-23T09:20:39;30;30;
40947;PMS5003;49382;-25.924;28.194;2022-11-23T09:23:01;28;28;
40947;PMS5003;49382;-25.924;28.194;2022-11-23T09:25:26;27;27;
40947;PMS5003;49382;-25.924;28.194;2022-11-23T09:27:55;30;30;
40947;PMS5003;49382;-25.924;28.194;2022-11-23T09:30:17;26;25;
40947;PMS5003;49382;-25.924;28.194;2022-11-23T09:32:43;23;23;
40947;PMS5003;49382;-25.924;28.194;2022-11-23T09:35:09;23;23;
40947;PMS5003;49382;-25.924;28.194;2022-11-23T09:37:35;25;25;
40947;PMS5003;49382;-25.924;28.194;2022-11-23T09:40:00;23;23;
40947;PMS5003;49382;-25.924;28.194;2022-11-23T09:42:34;24;24;
40947;PMS5003;49382;-25.924;28.194;2022-11-23T09:44:56;27;26;
40947;PMS5003;49382;-25.924;28.194;2022-11-23T09:47:23;29;29;
40947;PMS5003;49382;-25.924;28.194;2022-11-23T09:49:43;31;31;
40947;PMS5003;49382;-25.924;28.194;2022-11-23T09:52:08;26;26;
40947;PMS5003;49382;-25.924;28.194;2022-11-23T09:54:35;28;28;
40947;PMS5003;49382;-25.924;28.194;2022-11-23T09:57:00;26;26;
40947;PMS5003;49382;-25.924;28.194;2022-11-23T09:59:30;27;27;
40947;PMS5003;49382;-25.924;28.194;2022-11-23T10:01:51;33;32;
40947;PMS5003;49382;-25.924;28.194;2022-11-23T10:04:17;29;29;
40947;PMS5003;49382;-25.924;28.194;2022-11-23T10:06:43;38;38;
40947;PMS5003;49382;-25.924;28.194;2022-11-23T10:09:14;36;35;
40947;PMS5003;49382;-25.924;28.194;2022-11-23T10:14:02;33;33;
40947;PMS5003;49382;-25.924;28.194;2022-11-23T10:16:28;42;41;
40947;PMS5003;49382;-25.924;28.194;2022-11-23T10:18:53;38;37;
40947;PMS5003;49382;-25.924;28.194;2022-11-23T10:21:21;36;36;
40947;PMS5003;49382;-25.924;28.194;2022-11-23T10:23:46;36;36;
40947;PMS5003;49382;-25.924;28.194;2022-11-23T10:26:08;32;32;
40947;PMS5003;49382;-25.924;28.194;2022-11-23T10:28:33;33;33;
40947;PMS5003;49382;-25.924;28.194;2022-11-23T10:31:01;38;38;
40947;PMS5003;49382;-25.924;28.194;2022-11-23T10:33:30;38;38;
40947;PMS5003;49382;-25.924;28.194;2022-11-23T10:35:50;34;34;
40947;PMS5003;49382;-25.924;28.194;2022-11-23T10:38:16;41;40;
40947;PMS5003;49382;-25.924;28.194;2022-11-23T10:40:44;40;40;
40947;PMS5003;49382;-25.924;28.194;2022-11-23T10:43:10;40;40;
40947;PMS5003;49382;-25.924;28.194;2022-11-23T10:45:32;37;36;
40947;PMS5003;49382;-25.924;28.194;2022-11-23T10:47:58;33;33;
40947;PMS5003;49382;-25.924;28.194;2022-11-23T10:50:25;34;34;
40947;PMS5003;49382;-25.924;28.194;2022-11-23T10:52:49;34;34;
40947;PMS5003;49382;-25.924;28.194;2022-11-23T10:55:14;32;31;
40947;PMS5003;49382;-25.924;28.194;2022-11-23T10:57:41;34;34;
40947;PMS5003;49382;-25.924;28.194;2022-11-23T11:07:25;38;38;
40947;PMS5003;49382;-25.924;28.194;2022-11-23T11:09:49;35;35;
40947;PMS5003;49382;-25.924;28.194;2022-11-23T11:12:15;41;41;
40947;PMS5003;49382;-25.924;28.194;2022-11-23T11:14:41;37;37;
40947;PMS5003;49382;-25.924;28.194;2022-11-23T11:17:09;36;36;
40947;PMS5003;49382;-25.924;28.194;2022-11-23T11:19:32;35;35;
40947;PMS5003;49382;-25.924;28.194;2022-11-23T11:21:58;44;43;
40947;PMS5003;49382;-25.924;28.194;2022-11-23T11:24:25;35;35;
40947;PMS5003;49382;-25.924;28.194;2022-11-23T11:26:48;39;39;
40947;PMS5003;49382;-25.924;28.194;2022-11-23T11:29:22;35;35;
40947;PMS5003;49382;-25.924;28.194;2022-11-23T11:31:44;32;32;
40947;PMS5003;49382;-25.924;28.194;2022-11-23T11:34:06;33;33;
40947;PMS5003;49382;-25.924;28.194;2022-11-23T11:36:33;38;38;
40947;PMS5003;49382;-25.924;28.194;2022-11-23T11:38:56;32;32;
40947;PMS5003;49382;-25.924;28.194;2022-11-23T11:41:22;33;32;
40947;PMS5003;49382;-25.924;28.194;2022-11-23T11:43:48;40;40;
40947;PMS5003;49382;-25.924;28.194;2022-11-23T11:46:13;34;34;
40947;PMS5003;49382;-25.924;28.194;2022-11-23T11:48:38;38;38;
40947;PMS5003;49382;-25.924;28.194;2022-11-23T11:51:03;38;38;
40947;PMS5003;49382;-25.924;28.194;2022-11-23T11:53:29;37;37;
40947;PMS5003;49382;-25.924;28.194;2022-11-23T11:55:54;32;32;
40947;PMS5003;49382;-25.924;28.194;2022-11-23T11:58:19;30;30;
40947;PMS5003;49382;-25.924;28.194;2022-11-23T12:00:45;29;29;
40947;PMS5003;49382;-25.924;28.194;2022-11-23T12:03:13;29;29;
40947;PMS5003;49382;-25.924;28.194;2022-11-23T12:05:38;32;32;
40947;PMS5003;49382;-25.924;28.194;2022-11-23T12:08:04;31;31;
40947;PMS5003;49382;-25.924;28.194;2022-11-23T12:10:29;31;30;
40947;PMS5003;49382;-25.924;28.194;2022-11-23T12:12:53;30;30;
40947;PMS5003;49382;-25.924;28.194;2022-11-23T12:15:20;34;33;
40947;PMS5003;49382;-25.924;28.194;2022-11-23T12:20:12;30;30;
40947;PMS5003;49382;-25.924;28.194;2022-11-23T12:22:39;31;31;
40947;PMS5003;49382;-25.924;28.194;2022-11-23T12:25:06;27;27;
40947;PMS5003;49382;-25.924;28.194;2022-11-23T12:27:29;30;30;
40947;PMS5003;49382;-25.924;28.194;2022-11-23T12:29:58;30;29;
40947;PMS5003;49382;-25.924;28.194;2022-11-23T12:32:22;27;27;
40947;PMS5003;49382;-25.924;28.194;2022-11-23T12:37:14;29;29;
40947;PMS5003;49382;-25.924;28.194;2022-11-23T12:42:02;29;29;
40947;PMS5003;49382;-25.924;28.194;2022-11-23T12:46:54;32;32;
40947;PMS5003;49382;-25.924;28.194;2022-11-23T12:49:22;32;31;
40947;PMS5003;49382;-25.924;28.194;2022-11-23T12:51:47;32;32;
40947;PMS5003;49382;-25.924;28.194;2022-11-23T12:54:16;32;32;
40947;PMS5003;49382;-25.924;28.194;2022-11-23T12:59:02;31;31;
40947;PMS5003;49382;-25.924;28.194;2022-11-23T13:01:29;31;31;
40947;PMS5003;49382;-25.924;28.194;2022-11-23T13:03:59;32;32;
40947;PMS5003;49382;-25.924;28.194;2022-11-23T13:06:26;32;31;
40947;PMS5003;49382;-25.924;28.194;2022-11-23T13:08:50;31;31;
40947;PMS5003;49382;-25.924;28.194;2022-11-23T13:11:14;26;26;
40947;PMS5003;49382;-25.924;28.194;2022-11-23T13:18:32;33;33;
40947;PMS5003;49382;-25.924;28.194;2022-11-23T13:21:00;31;31;
40947;PMS5003;49382;-25.924;28.194;2022-11-23T13:23:19;28;28;
40947;PMS5003;49382;-25.924;28.194;2022-11-23T13:25:45;32;32;
40947;PMS5003;49382;-25.924;28.194;2022-11-23T13:30:37;31;30;
40947;PMS5003;49382;-25.924;28.194;2022-11-23T13:33:22;33;33;
40947;PMS5003;49382;-25.924;28.194;2022-11-23T13:40:21;40;39;
40947;PMS5003;49382;-25.924;28.194;2022-11-23T13:42:45;34;34;
40947;PMS5003;49382;-25.924;28.194;2022-11-23T13:47:35;29;29;
40947;PMS5003;49382;-25.924;28.194;2022-11-23T13:52:27;61;61;
40947;PMS5003;49382;-25.924;28.194;2022-11-23T13:54:53;34;34;
40947;PMS5003;49382;-25.924;28.194;2022-11-23T13:57:17;29;29;
40947;PMS5003;49382;-25.924;28.194;2022-11-23T13:59:43;32;31;
40947;PMS5003;49382;-25.924;28.194;2022-11-23T14:04:35;35;35;
40947;PMS5003;49382;-25.924;28.194;2022-11-23T14:07:01;36;35;
40947;PMS5003;49382;-25.924;28.194;2022-11-23T14:09:28;33;33;
40947;PMS5003;49382;-25.924;28.194;2022-11-23T14:11:57;34;34;
40947;PMS5003;49382;-25.924;28.194;2022-11-23T14:14:19;34;34;
40947;PMS5003;49382;-25.924;28.194;2022-11-23T14:19:10;35;35;
40947;PMS5003;49382;-25.924;28.194;2022-11-23T14:21:35;33;33;
40947;PMS5003;49382;-25.924;28.194;2022-11-23T14:26:30;37;36;
40947;PMS5003;49382;-25.924;28.194;2022-11-23T14:28:53;36;36;
40947;PMS5003;49382;-25.924;28.194;2022-11-23T14:31:17;38;37;
40947;PMS5003;49382;-25.924;28.194;2022-11-23T14:33:41;39;38;
40947;PMS5003;49382;-25.924;28.194;2022-11-23T14:36:10;37;37;
40947;PMS5003;49382;-25.924;28.194;2022-11-23T14:40:59;34;34;
40947;PMS5003;49382;-25.924;28.194;2022-11-23T14:43:21;35;35;
40947;PMS5003;49382;-25.924;28.194;2022-11-23T14:45:47;36;36;
40947;PMS5003;49382;-25.924;28.194;2022-11-23T14:50:39;36;36;
40947;PMS5003;49382;-25.924;28.194;2022-11-23T14:53:04;37;37;
40947;PMS5003;49382;-25.924;28.194;2022-11-23T14:55:30;33;33;
40947;PMS5003;49382;-25.924;28.194;2022-11-23T14:57:56;36;35;
40947;PMS5003;49382;-25.924;28.194;2022-11-23T15:00:26;36;36;
40947;PMS5003;49382;-25.924;28.194;2022-11-23T15:02:46;37;36;
40947;PMS5003;49382;-25.924;28.194;2022-11-23T15:05:13;37;37;
40947;PMS5003;49382;-25.924;28.194;2022-11-23T15:07:41;38;38;
40947;PMS5003;49382;-25.924;28.194;2022-11-23T15:10:04;37;36;
40947;PMS5003;49382;-25.924;28.194;2022-11-23T15:12:29;38;38;
40947;PMS5003;49382;-25.924;28.194;2022-11-23T15:14:54;39;39;
40947;PMS5003;49382;-25.924;28.194;2022-11-23T15:17:20;48;48;
40947;PMS5003;49382;-25.924;28.194;2022-11-23T15:22:15;42;41;
40947;PMS5003;49382;-25.924;28.194;2022-11-23T15:24:36;50;50;
40947;PMS5003;49382;-25.924;28.194;2022-11-23T15:27:03;65;65;
40947;PMS5003;49382;-25.924;28.194;2022-11-23T15:29:27;66;65;
40947;PMS5003;49382;-25.924;28.194;2022-11-23T15:31:52;57;57;
40947;PMS5003;49382;-25.924;28.194;2022-11-23T15:34:18;71;71;
40947;PMS5003;49382;-25.924;28.194;2022-11-23T15:36:43;46;46;
40947;PMS5003;49382;-25.924;28.194;2022-11-23T15:39:13;77;77;
40947;PMS5003;49382;-25.924;28.194;2022-11-23T15:41:33;64;64;
40947;PMS5003;49382;-25.924;28.194;2022-11-23T15:43:59;46;46;
40947;PMS5003;49382;-25.924;28.194;2022-11-23T15:46:25;52;52;
40947;PMS5003;49382;-25.924;28.194;2022-11-23T15:48:49;73;72;
40947;PMS5003;49382;-25.924;28.194;2022-11-23T15:51:21;62;62;
40947;PMS5003;49382;-25.924;28.194;2022-11-23T15:53:44;69;69;
40947;PMS5003;49382;-25.924;28.194;2022-11-23T15:56:06;67;67;
40947;PMS5003;49382;-25.924;28.194;2022-11-23T15:58:32;49;48;
40947;PMS5003;49382;-25.924;28.194;2022-11-23T16:01:00;45;45;
40947;PMS5003;49382;-25.924;28.194;2022-11-23T16:03:28;47;47;
40947;PMS5003;49382;-25.924;28.194;2022-11-23T16:10:41;43;43;
40947;PMS5003;49382;-25.924;28.194;2022-11-23T16:13:04;42;42;
40947;PMS5003;49382;-25.924;28.194;2022-11-23T16:15:31;43;42;
40947;PMS5003;49382;-25.924;28.194;2022-11-23T16:17:54;67;67;
40947;PMS5003;49382;-25.924;28.194;2022-11-23T16:20:20;44;44;
40947;PMS5003;49382;-25.924;28.194;2022-11-23T16:22:47;44;43;
40947;PMS5003;49382;-25.924;28.194;2022-11-23T16:25:18;147;147;
40947;PMS5003;49382;-25.924;28.194;2022-11-23T16:27:36;158;157;
40947;PMS5003;49382;-25.924;28.194;2022-11-23T16:30:02;72;72;
40947;PMS5003;49382;-25.924;28.194;2022-11-23T16:32:28;52;52;
40947;PMS5003;49382;-25.924;28.194;2022-11-23T16:34:53;48;48;
40947;PMS5003;49382;-25.924;28.194;2022-11-23T16:37:17;50;49;